Time;durP1;ratioP1;P1;durP2;ratioP2;P2;SDS_P1;SDS_P2;PMS_P1;PMS_P2;Temp;Humidity;BMP_temperature;BMP_pressure;BME280_temperature;BME280_humidity;BME280_pressure;Samples;Min_cycle;Max_cycle;Signal;HPM_P1;HPM_P2
2021/03/07 00:01:16;;;;;;;13.07;8.30;;;3.40;85.80;;;;;;5098286;28;20204;-66
2021/03/07 00:03:43;;;;;;;13.30;7.60;;;3.50;85.80;;;;;;5097835;28;20482;-65
2021/03/07 00:06:10;;;;;;;14.98;8.35;;;3.50;85.80;;;;;;5098208;28;20235;-65
2021/03/07 00:08:37;;;;;;;12.95;7.93;;;3.50;85.70;;;;;;5085015;28;20276;-65
2021/03/07 00:11:19;;;;;;;12.05;9.68;;;3.60;85.70;;;;;;5064575;28;20203;-65
2021/03/07 00:13:45;;;;;;;10.45;7.97;;;3.60;85.40;;;;;;5078005;28;20209;-65
2021/03/07 00:16:12;;;;;;;10.88;7.55;;;3.70;85.20;;;;;;5082635;28;20373;-65
2021/03/07 00:18:38;;;;;;;12.98;7.95;;;3.70;85.50;;;;;;5086130;28;20494;-64
2021/03/07 00:21:05;;;;;;;10.93;7.18;;;3.60;85.30;;;;;;5091374;28;20203;-66
2021/03/07 00:23:32;;;;;;;11.20;7.28;;;3.70;85.80;;;;;;5077157;28;20530;-66
2021/03/07 00:25:58;;;;;;;13.45;9.55;;;3.60;85.90;;;;;;5063663;28;20269;-65
2021/03/07 00:28:25;;;;;;;10.32;7.03;;;3.60;86.60;;;;;;5080670;28;20521;-65
2021/03/07 00:30:51;;;;;;;11.68;7.72;;;3.60;86.50;;;;;;5062008;28;20377;-64
2021/03/07 00:33:18;;;;;;;9.98;7.45;;;3.60;86.10;;;;;;5084273;28;20227;-64
2021/03/07 00:35:45;;;;;;;14.43;7.95;;;3.70;86.50;;;;;;5085240;28;20541;-65
2021/03/07 00:38:11;;;;;;;10.48;7.05;;;3.70;86.30;;;;;;5077492;28;20220;-66
2021/03/07 00:40:38;;;;;;;10.30;7.60;;;3.70;86.50;;;;;;5086730;28;20218;-66
2021/03/07 00:43:05;;;;;;;9.00;6.72;;;3.90;86.50;;;;;;5077472;28;20499;-65
2021/03/07 00:45:33;;;;;;;12.68;8.15;;;3.70;86.80;;;;;;5073171;28;20212;-65
2021/03/07 00:48:00;;;;;;;7.93;7.05;;;3.80;86.50;;;;;;5079076;28;20227;-64
2021/03/07 00:50:27;;;;;;;10.35;7.32;;;3.90;86.60;;;;;;5079286;28;20423;-64
2021/03/07 00:52:57;;;;;;;17.92;8.15;;;3.60;88.20;;;;;;5076637;28;20208;-66
2021/03/07 00:55:25;;;;;;;9.55;7.63;;;3.60;87.60;;;;;;5077822;28;20212;-65
2021/03/07 00:57:52;;;;;;;13.48;8.25;;;3.80;87.20;;;;;;5078435;28;20226;-66
2021/03/07 01:00:24;;;;;;;13.10;8.25;;;3.60;87.30;;;;;;5074972;28;20513;-66
2021/03/07 01:02:50;;;;;;;10.30;7.25;;;3.60;87.40;;;;;;5078576;28;20204;-64
2021/03/07 01:05:18;;;;;;;11.80;7.70;;;3.50;87.70;;;;;;5080896;28;20235;-65
2021/03/07 01:07:45;;;;;;;10.50;7.68;;;3.60;87.50;;;;;;5073110;28;20553;-66
2021/03/07 01:10:26;;;;;;;9.93;7.65;;;3.60;87.90;;;;;;5075313;28;20204;-66
2021/03/07 01:12:53;;;;;;;9.90;7.50;;;3.70;87.70;;;;;;5077104;28;20199;-66
2021/03/07 01:15:28;;;;;;;11.20;8.52;;;3.70;87.40;;;;;;5078877;28;20211;-66
2021/03/07 01:17:55;;;;;;;10.15;6.90;;;3.70;87.60;;;;;;5076840;28;20203;-66
2021/03/07 01:20:22;;;;;;;15.88;7.90;;;3.70;88.20;;;;;;5071578;28;20649;-64
2021/03/07 01:22:54;;;;;;;9.57;7.65;;;3.60;88.20;;;;;;5081814;28;20204;-66
2021/03/07 01:25:31;;;;;;;13.35;7.72;;;3.70;88.30;;;;;;5075294;28;20210;-65
2021/03/07 01:28:02;;;;;;;16.75;8.27;;;3.80;88.30;;;;;;5074959;28;20221;-65
2021/03/07 01:30:31;;;;;;;11.60;7.55;;;3.90;87.60;;;;;;5089729;28;20204;-65
2021/03/07 01:32:58;;;;;;;12.38;7.50;;;3.80;87.90;;;;;;5076445;28;20233;-65
2021/03/07 01:35:25;;;;;;;11.52;6.90;;;3.80;88.10;;;;;;5082574;28;20290;-66
2021/03/07 01:37:53;;;;;;;8.15;6.80;;;3.80;88.30;;;;;;5073681;28;20232;-65
2021/03/07 01:40:23;;;;;;;10.02;6.80;;;3.80;88.20;;;;;;5067510;28;20208;-65
2021/03/07 01:42:53;;;;;;;12.20;6.85;;;3.80;88.20;;;;;;5082651;28;20214;-65
2021/03/07 01:45:25;;;;;;;10.90;6.32;;;3.70;88.90;;;;;;5056961;28;20205;-66
2021/03/07 01:47:54;;;;;;;7.47;5.70;;;3.70;88.90;;;;;;5058946;28;20236;-65
2021/03/07 01:50:23;;;;;;;9.02;7.40;;;3.80;88.60;;;;;;5066975;28;20213;-65
2021/03/07 01:52:51;;;;;;;10.15;7.05;;;3.70;89.00;;;;;;5066392;28;20214;-65
2021/03/07 01:55:18;;;;;;;6.47;5.85;;;3.80;89.30;;;;;;5080357;28;20273;-64
2021/03/07 01:57:47;;;;;;;8.88;6.40;;;3.60;89.50;;;;;;5060912;28;20211;-64
2021/03/07 02:00:15;;;;;;;7.57;5.35;;;3.60;89.30;;;;;;5060598;28;20243;-65
2021/03/07 02:02:42;;;;;;;6.90;6.03;;;3.60;89.10;;;;;;5061408;28;20209;-66
2021/03/07 02:05:11;;;;;;;8.35;6.25;;;3.70;89.50;;;;;;5060067;28;20276;-67
2021/03/07 02:07:41;;;;;;;10.32;6.32;;;3.60;89.50;;;;;;5070433;28;20291;-66
2021/03/07 02:10:11;;;;;;;11.38;6.45;;;3.60;89.60;;;;;;5080121;28;20441;-66
2021/03/07 02:12:48;;;;;;;5.72;5.07;;;3.60;89.50;;;;;;5080551;28;20457;-66
2021/03/07 02:15:16;;;;;;;6.68;6.00;;;3.70;89.30;;;;;;5078447;28;20459;-65
2021/03/07 02:17:45;;;;;;;7.68;5.82;;;3.70;89.30;;;;;;5079313;28;20467;-65
2021/03/07 02:20:15;;;;;;;8.55;5.43;;;3.70;89.60;;;;;;5080235;28;20584;-66
2021/03/07 02:22:56;;;;;;;6.25;5.07;;;4.00;89.80;;;;;;5080346;28;20278;-65
2021/03/07 02:25:23;;;;;;;7.15;6.10;;;3.70;89.70;;;;;;5080576;28;20212;-65
2021/03/07 02:27:49;;;;;;;6.63;5.65;;;3.60;89.90;;;;;;5080301;28;20238;-64
2021/03/07 02:30:17;;;;;;;8.20;6.15;;;3.50;90.00;;;;;;5093279;28;20399;-64
2021/03/07 02:32:55;;;;;;;8.48;5.90;;;3.60;90.10;;;;;;5079766;28;20244;-65
2021/03/07 02:35:26;;;;;;;11.25;5.80;;;3.60;89.90;;;;;;5079558;28;20556;-65
2021/03/07 02:37:56;;;;;;;6.45;5.68;;;3.70;90.00;;;;;;5079216;28;20216;-66
2021/03/07 02:40:26;;;;;;;8.88;6.80;;;3.60;90.00;;;;;;5079566;28;20204;-66
2021/03/07 02:43:10;;;;;;;7.32;6.25;;;3.60;90.10;;;;;;5066776;28;20205;-65
2021/03/07 02:45:39;;;;;;;6.25;5.63;;;3.60;89.90;;;;;;5068282;28;20214;-66
2021/03/07 02:48:07;;;;;;;8.32;6.45;;;3.70;89.80;;;;;;5065435;28;20587;-65
2021/03/07 02:50:35;;;;;;;7.18;6.30;;;3.70;89.80;;;;;;5069246;28;20237;-65
2021/03/07 02:53:06;;;;;;;11.48;8.40;;;3.80;89.70;;;;;;5072210;28;20205;-66
2021/03/07 02:55:35;;;;;;;11.82;6.95;;;3.80;89.70;;;;;;5070163;28;20206;-65
2021/03/07 02:58:05;;;;;;;14.60;9.15;;;3.80;89.50;;;;;;5071215;28;20209;-65
2021/03/07 03:00:33;;;;;;;16.02;8.90;;;3.70;89.70;;;;;;5071432;28;20212;-66
2021/03/07 03:03:07;;;;;;;16.67;7.78;;;3.80;90.00;;;;;;5069808;28;20297;-66
2021/03/07 03:05:36;;;;;;;11.60;9.27;;;3.70;90.00;;;;;;5071450;28;20233;-66
2021/03/07 03:08:04;;;;;;;13.73;9.32;;;3.70;90.10;;;;;;5098548;28;20616;-66
2021/03/07 03:10:32;;;;;;;14.65;9.98;;;3.70;90.10;;;;;;5087796;28;20213;-66
2021/03/07 03:13:00;;;;;;;17.08;11.18;;;3.70;90.20;;;;;;5081519;28;20208;-65
2021/03/07 03:15:28;;;;;;;13.65;10.25;;;3.70;90.20;;;;;;5078642;28;20215;-66
2021/03/07 03:17:56;;;;;;;15.48;11.10;;;3.60;90.20;;;;;;5078842;28;20255;-65
2021/03/07 03:20:23;;;;;;;18.02;11.07;;;3.80;90.10;;;;;;5078888;28;20469;-66
2021/03/07 03:22:50;;;;;;;14.27;10.50;;;3.90;89.90;;;;;;5088585;28;20197;-65
2021/03/07 03:25:17;;;;;;;17.13;11.80;;;3.80;90.20;;;;;;5079127;28;20464;-65
2021/03/07 03:27:44;;;;;;;16.10;11.55;;;3.80;90.10;;;;;;5062783;28;20411;-65
2021/03/07 03:30:19;;;;;;;14.80;13.15;;;3.80;90.10;;;;;;5078981;28;20238;-65
2021/03/07 03:32:45;;;;;;;16.73;10.93;;;3.70;90.00;;;;;;5078842;28;20207;-65
2021/03/07 03:35:15;;;;;;;21.90;13.80;;;3.80;90.10;;;;;;5092190;28;20556;-64
2021/03/07 03:37:43;;;;;;;17.20;12.93;;;3.80;90.10;;;;;;5091960;28;20212;-65
2021/03/07 03:40:17;;;;;;;20.77;13.55;;;3.80;90.10;;;;;;5098610;28;20228;-64
2021/03/07 03:42:45;;;;;;;17.90;12.50;;;3.80;90.20;;;;;;5071407;28;20246;-65
2021/03/07 03:45:12;;;;;;;22.60;13.50;;;3.60;90.30;;;;;;5065637;28;20206;-66
2021/03/07 03:47:45;;;;;;;21.25;13.82;;;3.70;90.40;;;;;;5066313;28;20233;-64
2021/03/07 03:50:13;;;;;;;18.83;11.75;;;3.80;90.40;;;;;;5066135;28;20211;-64
2021/03/07 03:52:42;;;;;;;17.33;11.27;;;3.60;90.30;;;;;;5065428;28;20208;-65
2021/03/07 03:55:10;;;;;;;15.18;11.75;;;3.70;90.40;;;;;;5075210;28;20206;-65
2021/03/07 03:57:37;;;;;;;15.45;9.60;;;3.70;90.40;;;;;;5063728;28;20481;-65
2021/03/07 04:00:07;;;;;;;15.95;11.15;;;3.80;90.30;;;;;;5074403;28;20497;-65
2021/03/07 04:02:36;;;;;;;12.20;9.70;;;3.90;90.00;;;;;;5077033;28;20213;-65
2021/03/07 04:05:06;;;;;;;11.73;8.55;;;3.80;90.10;;;;;;5068679;28;20205;-65
2021/03/07 04:07:34;;;;;;;8.98;7.70;;;3.70;90.20;;;;;;5069380;28;20567;-65
2021/03/07 04:10:03;;;;;;;13.52;8.00;;;3.70;90.30;;;;;;5067429;28;20227;-65
2021/03/07 04:12:30;;;;;;;11.77;7.40;;;3.60;90.40;;;;;;5069649;28;20222;-66
2021/03/07 04:14:57;;;;;;;8.50;7.63;;;3.70;90.80;;;;;;5073916;28;20269;-66
2021/03/07 04:17:26;;;;;;;6.97;6.20;;;3.70;90.40;;;;;;5079892;28;20276;-65
2021/03/07 04:19:54;;;;;;;8.55;6.28;;;3.70;90.30;;;;;;5088331;28;20300;-65
2021/03/07 04:22:21;;;;;;;13.43;7.70;;;3.80;90.10;;;;;;5089417;28;20211;-66
2021/03/07 04:24:48;;;;;;;10.02;7.63;;;3.90;90.00;;;;;;5083941;28;20214;-65
2021/03/07 04:27:16;;;;;;;9.88;6.50;;;3.90;89.90;;;;;;5095837;28;20248;-64
2021/03/07 04:29:44;;;;;;;7.63;6.13;;;3.90;89.90;;;;;;5089892;28;20203;-66
2021/03/07 04:32:11;;;;;;;9.48;6.78;;;3.90;89.90;;;;;;5088880;28;20518;-65
2021/03/07 04:34:39;;;;;;;8.57;5.95;;;3.90;89.50;;;;;;5078342;28;20471;-65
2021/03/07 04:37:06;;;;;;;6.95;6.10;;;3.90;89.20;;;;;;5086864;28;20211;-65
2021/03/07 04:39:33;;;;;;;7.22;5.47;;;3.90;89.60;;;;;;5081282;28;20431;-64
2021/03/07 04:42:00;;;;;;;7.40;6.47;;;3.80;89.50;;;;;;5076310;28;20210;-65
2021/03/07 04:44:37;;;;;;;9.77;5.75;;;3.90;89.60;;;;;;5065122;28;20500;-65
2021/03/07 04:47:03;;;;;;;8.77;6.28;;;4.00;89.30;;;;;;5060012;28;20562;-65
2021/03/07 04:49:30;;;;;;;6.53;5.82;;;3.90;89.20;;;;;;5062203;28;20442;-65
2021/03/07 04:51:57;;;;;;;7.45;6.25;;;3.90;88.80;;;;;;5060007;28;20406;-65
2021/03/07 04:54:23;;;;;;;7.45;6.43;;;3.80;89.30;;;;;;5061316;28;20546;-65
2021/03/07 04:56:50;;;;;;;6.68;6.00;;;3.90;89.00;;;;;;5060161;28;20222;-64
2021/03/07 04:59:17;;;;;;;6.85;5.30;;;3.80;89.20;;;;;;5070058;28;20421;-63
2021/03/07 05:01:43;;;;;;;9.75;6.47;;;3.90;88.90;;;;;;5065006;28;20217;-65
2021/03/07 05:04:10;;;;;;;8.32;5.97;;;3.90;89.00;;;;;;5059491;28;20214;-64
2021/03/07 05:06:41;;;;;;;7.25;6.25;;;4.00;88.50;;;;;;5067256;28;20407;-65
2021/03/07 05:09:09;;;;;;;6.90;6.10;;;3.90;89.20;;;;;;5059780;28;20210;-66
2021/03/07 05:11:38;;;;;;;8.27;6.38;;;3.90;89.30;;;;;;5069409;28;20219;-66
2021/03/07 05:14:05;;;;;;;7.05;6.30;;;3.80;89.60;;;;;;5062533;28;20204;-65
2021/03/07 05:16:33;;;;;;;10.95;6.68;;;3.90;89.50;;;;;;5077033;28;20220;-65
2021/03/07 05:19:01;;;;;;;8.00;6.97;;;4.00;88.90;;;;;;5076240;28;20271;-64
2021/03/07 05:21:29;;;;;;;11.32;7.90;;;4.00;88.90;;;;;;5086362;28;20204;-64
2021/03/07 05:23:56;;;;;;;9.05;6.95;;;4.20;88.80;;;;;;5100727;28;20211;-65
2021/03/07 05:26:23;;;;;;;9.90;8.27;;;4.20;88.60;;;;;;5087507;28;20205;-66
2021/03/07 05:28:49;;;;;;;10.07;7.75;;;4.20;89.10;;;;;;5101335;28;20207;-65
2021/03/07 05:31:16;;;;;;;9.65;7.53;;;4.10;89.50;;;;;;5081180;28;20205;-65
2021/03/07 05:33:43;;;;;;;12.95;8.60;;;4.00;90.10;;;;;;5068573;28;20240;-65
2021/03/07 05:36:09;;;;;;;12.13;8.63;;;3.80;90.70;;;;;;5081114;28;20205;-65
2021/03/07 05:38:38;;;;;;;13.50;9.05;;;3.80;90.60;;;;;;5101378;28;20251;-65
2021/03/07 05:41:05;;;;;;;13.75;9.25;;;3.80;90.60;;;;;;5093498;28;20217;-64
2021/03/07 05:43:32;;;;;;;13.63;8.57;;;3.90;90.30;;;;;;5063503;28;20219;-64
2021/03/07 05:45:59;;;;;;;14.20;9.88;;;3.90;90.40;;;;;;5065355;28;20215;-65
2021/03/07 05:48:29;;;;;;;13.48;8.93;;;3.90;90.30;;;;;;5063398;28;20255;-65
2021/03/07 05:50:56;;;;;;;15.85;9.93;;;3.80;90.40;;;;;;5066163;28;20214;-65
2021/03/07 05:53:24;;;;;;;14.68;8.52;;;3.80;90.30;;;;;;5078937;28;20228;-65
2021/03/07 05:55:51;;;;;;;11.50;8.40;;;3.80;90.30;;;;;;5063646;28;20213;-65
2021/03/07 05:58:19;;;;;;;12.55;9.30;;;3.90;90.10;;;;;;5062916;28;20206;-65
2021/03/07 06:00:46;;;;;;;12.82;8.82;;;3.90;90.10;;;;;;5062431;28;20217;-66
2021/03/07 06:03:13;;;;;;;9.95;7.50;;;3.90;90.00;;;;;;5070630;28;20219;-65
2021/03/07 06:05:40;;;;;;;9.70;6.90;;;3.80;90.10;;;;;;5062831;28;20232;-66
2021/03/07 06:08:07;;;;;;;8.50;6.95;;;3.80;90.30;;;;;;5064535;28;20230;-65
2021/03/07 06:10:39;;;;;;;9.48;6.60;;;3.80;89.80;;;;;;5062608;28;20278;-65
2021/03/07 06:13:10;;;;;;;6.60;5.95;;;3.80;89.20;;;;;;5064269;28;20506;-66
2021/03/07 06:16:10;;;;;;;7.57;6.68;;;4.00;89.00;;;;;;5092894;28;20260;-65
2021/03/07 06:18:44;;;;;;;8.43;6.07;;;3.90;88.60;;;;;;5079495;28;20240;-66
2021/03/07 06:21:33;;;;;;;7.20;5.65;;;3.90;88.50;;;;;;5079973;28;20523;-65
2021/03/07 06:24:01;;;;;;;9.07;5.82;;;4.00;88.40;;;;;;5081131;28;20237;-65
2021/03/07 06:26:27;;;;;;;6.78;5.53;;;4.10;87.70;;;;;;5099923;28;20213;-65
2021/03/07 06:29:08;;;;;;;7.80;6.43;;;4.90;87.90;;;;;;5100142;28;20263;-65
2021/03/07 06:31:36;;;;;;;7.63;5.20;;;4.20;86.80;;;;;;5074691;28;20278;-65
2021/03/07 06:34:03;;;;;;;5.40;4.85;;;4.10;86.80;;;;;;5099311;28;20514;-65
2021/03/07 06:36:30;;;;;;;7.60;6.05;;;4.10;87.10;;;;;;5079612;28;20224;-64
2021/03/07 06:38:59;;;;;;;8.25;5.97;;;4.20;87.10;;;;;;5081061;28;20216;-64
2021/03/07 06:41:29;;;;;;;8.55;6.35;;;4.30;86.70;;;;;;5076800;28;20243;-64
2021/03/07 06:44:12;;;;;;;11.15;6.70;;;4.50;86.40;;;;;;5062433;28;20505;-65
2021/03/07 06:46:42;;;;;;;12.05;7.50;;;4.80;85.50;;;;;;5061932;28;20264;-65
2021/03/07 06:49:21;;;;;;;10.10;7.25;;;4.80;85.30;;;;;;5065520;28;20220;-64
2021/03/07 06:51:47;;;;;;;10.57;7.95;;;4.80;85.00;;;;;;5063126;28;20455;-65
2021/03/07 06:54:19;;;;;;;8.10;7.15;;;4.90;84.70;;;;;;5062974;28;20210;-65
2021/03/07 06:56:48;;;;;;;11.75;7.88;;;4.70;85.20;;;;;;5062884;28;20246;-65
2021/03/07 06:59:14;;;;;;;8.73;6.78;;;4.90;84.60;;;;;;5061676;28;20241;-65
2021/03/07 07:01:43;;;;;;;9.65;7.75;;;4.90;84.70;;;;;;5062675;28;20416;-65
2021/03/07 07:04:11;;;;;;;9.90;7.22;;;5.00;84.30;;;;;;5072448;28;20569;-65
2021/03/07 07:06:39;;;;;;;12.60;8.85;;;5.10;84.00;;;;;;5066407;28;20226;-66
2021/03/07 07:09:10;;;;;;;13.35;7.85;;;5.00;83.60;;;;;;5061434;28;20210;-65
2021/03/07 07:11:47;;;;;;;8.60;7.50;;;5.00;84.00;;;;;;5080274;28;20212;-65
2021/03/07 07:14:29;;;;;;;11.80;8.45;;;5.20;83.30;;;;;;5074812;28;20209;-65
2021/03/07 07:16:56;;;;;;;11.70;7.60;;;5.20;83.20;;;;;;5086167;28;20209;-65
2021/03/07 07:19:23;;;;;;;9.93;7.25;;;5.10;83.50;;;;;;5092645;28;20684;-65
2021/03/07 07:21:50;;;;;;;11.48;7.97;;;5.10;84.70;;;;;;5078877;28;20217;-65
2021/03/07 07:24:17;;;;;;;10.73;8.65;;;5.10;84.00;;;;;;5078278;28;20220;-65
2021/03/07 07:26:45;;;;;;;10.77;8.23;;;5.00;83.70;;;;;;5077446;28;20233;-65
2021/03/07 07:29:12;;;;;;;19.02;8.90;;;5.20;83.90;;;;;;5078329;28;20209;-65
2021/03/07 07:31:49;;;;;;;15.20;8.75;;;5.10;83.40;;;;;;5078968;28;20217;-65
2021/03/07 07:34:26;;;;;;;9.25;7.55;;;5.20;83.20;;;;;;5093908;28;20277;-65
2021/03/07 07:37:03;;;;;;;12.38;6.90;;;5.10;83.90;;;;;;5084020;28;20213;-65
2021/03/07 07:39:32;;;;;;;10.25;6.97;;;5.10;84.00;;;;;;5078932;28;20213;-64
2021/03/07 07:42:19;;;;;;;13.02;6.80;;;5.20;83.30;;;;;;5081160;28;20224;-64
2021/03/07 07:44:45;;;;;;;8.90;7.13;;;5.30;83.20;;;;;;5077741;28;20526;-65
2021/03/07 07:47:12;;;;;;;9.32;7.78;;;5.40;82.90;;;;;;5073609;28;20238;-68
2021/03/07 07:49:42;;;;;;;10.30;6.50;;;5.60;81.90;;;;;;5072515;28;20210;-65
2021/03/07 07:52:24;;;;;;;10.63;7.05;;;5.70;81.30;;;;;;5068815;28;20210;-65
2021/03/07 07:54:59;;;;;;;8.05;7.18;;;5.90;80.90;;;;;;5070479;28;20505;-64
2021/03/07 07:57:32;;;;;;;10.45;7.30;;;6.00;79.90;;;;;;5072778;28;20198;-64
2021/03/07 07:59:59;;;;;;;9.93;8.93;;;5.90;80.00;;;;;;5067479;28;20235;-65
2021/03/07 08:02:53;;;;;;;12.93;9.15;;;6.00;80.00;;;;;;5065082;28;20210;-66
2021/03/07 08:05:21;;;;;;;12.25;7.60;;;5.90;80.20;;;;;;5067044;28;20656;-64
2021/03/07 08:08:00;;;;;;;11.07;7.20;;;6.00;79.80;;;;;;5067634;28;20578;-65
2021/03/07 08:10:47;;;;;;;11.32;7.85;;;6.10;79.10;;;;;;5064184;28;20512;-65
2021/03/07 08:13:36;;;;;;;9.40;8.40;;;5.90;79.90;;;;;;5066070;28;20210;-66
2021/03/07 08:16:06;;;;;;;12.30;7.85;;;6.00;80.00;;;;;;5091201;28;20218;-64
2021/03/07 08:18:51;;;;;;;14.27;9.35;;;6.10;80.00;;;;;;5077527;28;20249;-64
2021/03/07 08:21:23;;;;;;;19.40;9.75;;;6.10;80.10;;;;;;5064677;28;20207;-65
2021/03/07 08:23:56;;;;;;;16.25;9.93;;;6.00;80.10;;;;;;5077974;28;20527;-65
2021/03/07 08:26:26;;;;;;;13.63;9.10;;;6.10;80.80;;;;;;5077359;28;20206;-69
2021/03/07 08:28:53;;;;;;;14.88;9.68;;;6.20;80.00;;;;;;5090855;28;20612;-66
2021/03/07 08:31:20;;;;;;;10.38;8.20;;;6.20;79.90;;;;;;5077695;28;20203;-66
2021/03/07 08:33:47;;;;;;;15.02;8.73;;;6.10;80.10;;;;;;5077486;28;20207;-65
2021/03/07 08:36:15;;;;;;;11.10;7.43;;;6.20;80.00;;;;;;5077236;28;20209;-67
2021/03/07 08:38:54;;;;;;;13.40;8.77;;;6.20;80.20;;;;;;5077794;28;20210;-65
2021/03/07 08:41:26;;;;;;;12.40;9.45;;;6.30;79.90;;;;;;5073535;28;20242;-65
2021/03/07 08:43:57;;;;;;;12.80;8.25;;;6.40;79.10;;;;;;5060027;28;20212;-66
2021/03/07 08:46:39;;;;;;;9.20;7.22;;;6.40;79.00;;;;;;5059589;28;20203;-65
2021/03/07 08:49:18;;;;;;;10.60;8.27;;;6.30;79.40;;;;;;5060216;28;20385;-65
2021/03/07 08:51:47;;;;;;;9.63;7.22;;;6.10;79.30;;;;;;5060502;28;20211;-65
2021/03/07 08:54:22;;;;;;;12.98;9.20;;;6.00;79.20;;;;;;5057972;28;20270;-66
2021/03/07 08:56:50;;;;;;;9.52;7.20;;;6.00;79.50;;;;;;5057775;28;20522;-65
2021/03/07 08:59:18;;;;;;;11.80;7.97;;;6.00;79.00;;;;;;5057400;28;20214;-65
2021/03/07 09:01:49;;;;;;;8.63;6.50;;;6.10;79.00;;;;;;5058374;28;20289;-65
2021/03/07 09:04:16;;;;;;;6.85;6.15;;;6.10;78.10;;;;;;5057773;28;20210;-66
2021/03/07 09:06:45;;;;;;;11.27;6.57;;;5.90;78.00;;;;;;5058296;28;20230;-64
2021/03/07 09:09:19;;;;;;;10.25;7.80;;;6.00;78.30;;;;;;5058097;28;20480;-65
2021/03/07 09:11:56;;;;;;;11.02;7.40;;;6.30;77.40;;;;;;5059114;28;20202;-65
2021/03/07 09:14:40;;;;;;;9.82;7.03;;;7.00;76.70;;;;;;5070805;28;20551;-65
2021/03/07 09:17:18;;;;;;;8.63;6.30;;;6.30;76.00;;;;;;5066722;28;20307;-66
2021/03/07 09:19:45;;;;;;;7.32;6.50;;;6.20;76.40;;;;;;5076863;28;20269;-65
2021/03/07 09:22:24;;;;;;;8.60;7.75;;;6.30;76.20;;;;;;5081150;28;20206;-65
2021/03/07 09:24:57;;;;;;;8.27;7.35;;;6.30;75.70;;;;;;5081483;28;20216;-66
2021/03/07 09:27:27;;;;;;;9.38;7.88;;;6.30;76.10;;;;;;5075292;28;20238;-66
2021/03/07 09:30:08;;;;;;;10.05;7.95;;;6.20;76.40;;;;;;5081486;28;20618;-66
2021/03/07 09:32:50;;;;;;;8.80;7.25;;;6.30;76.30;;;;;;5072164;28;20223;-66
2021/03/07 09:35:24;;;;;;;11.63;8.55;;;6.30;76.10;;;;;;5081556;28;20207;-66
2021/03/07 09:38:06;;;;;;;9.70;6.95;;;6.10;76.80;;;;;;5076092;28;20218;-66
2021/03/07 09:40:35;;;;;;;7.07;6.38;;;6.10;76.00;;;;;;5067810;28;20207;-65
2021/03/07 09:43:06;;;;;;;9.48;8.15;;;6.00;76.50;;;;;;5062778;28;20244;-65
2021/03/07 09:45:37;;;;;;;10.15;8.02;;;5.90;76.10;;;;;;5067563;28;20282;-66
2021/03/07 09:48:16;;;;;;;7.60;6.70;;;5.90;77.60;;;;;;5059605;28;20479;-66
2021/03/07 09:50:44;;;;;;;11.30;7.75;;;5.90;77.70;;;;;;5060046;28;20218;-66
2021/03/07 09:53:12;;;;;;;14.85;8.15;;;6.00;77.30;;;;;;5059517;28;20206;-66
2021/03/07 09:55:40;;;;;;;10.18;7.28;;;6.20;75.80;;;;;;5065298;28;20297;-65
2021/03/07 09:58:11;;;;;;;8.90;8.00;;;6.30;73.90;;;;;;5065831;28;20245;-64
2021/03/07 10:00:40;;;;;;;7.93;7.00;;;6.20;74.40;;;;;;5058785;28;20213;-64
2021/03/07 10:03:30;;;;;;;15.80;8.77;;;6.30;74.10;;;;;;5061743;28;20248;-66
2021/03/07 10:06:03;;;;;;;12.30;7.80;;;6.30;72.90;;;;;;5059266;28;20228;-65
2021/03/07 10:08:31;;;;;;;11.05;8.30;;;6.20;72.90;;;;;;5062272;28;20588;-65
2021/03/07 10:11:23;;;;;;;10.90;8.18;;;6.00;73.10;;;;;;5071411;28;20502;-65
2021/03/07 10:14:04;;;;;;;9.23;7.95;;;6.20;73.50;;;;;;5065078;28;20208;-64
2021/03/07 10:16:33;;;;;;;8.77;7.88;;;6.20;73.30;;;;;;5083448;28;20554;-66
2021/03/07 10:19:11;;;;;;;11.48;7.88;;;6.20;74.00;;;;;;5087264;28;20284;-64
2021/03/07 10:21:37;;;;;;;8.27;7.13;;;6.20;74.30;;;;;;5085088;28;20216;-66
2021/03/07 10:24:18;;;;;;;12.07;9.98;;;6.20;73.40;;;;;;5084027;28;20530;-65
2021/03/07 10:26:48;;;;;;;10.95;8.80;;;6.10;74.30;;;;;;5085646;28;20205;-66
2021/03/07 10:29:20;;;;;;;12.52;9.48;;;6.20;73.80;;;;;;5084001;28;20206;-65
2021/03/07 10:32:07;;;;;;;12.27;9.88;;;6.20;73.90;;;;;;5084827;28;20216;-65
2021/03/07 10:34:51;;;;;;;17.52;12.82;;;6.20;74.30;;;;;;5077532;28;20211;-65
2021/03/07 10:37:41;;;;;;;15.65;10.63;;;6.20;73.80;;;;;;5080230;28;20207;-65
2021/03/07 10:40:13;;;;;;;14.25;11.25;;;6.40;73.00;;;;;;5072284;28;20461;-65
2021/03/07 10:42:42;;;;;;;15.00;10.20;;;6.50;72.40;;;;;;5067319;28;20203;-68
2021/03/07 10:45:13;;;;;;;14.65;11.60;;;6.50;72.10;;;;;;5062729;28;20230;-66
2021/03/07 10:47:40;;;;;;;15.75;12.50;;;6.50;72.80;;;;;;5064805;28;20226;-65
2021/03/07 10:50:08;;;;;;;19.45;14.70;;;6.40;73.70;;;;;;5061697;28;20254;-66
2021/03/07 10:52:35;;;;;;;17.83;12.18;;;6.30;74.80;;;;;;5063467;28;20211;-66
2021/03/07 10:55:11;;;;;;;20.02;13.60;;;6.30;73.50;;;;;;5078921;28;20202;-65
2021/03/07 10:57:42;;;;;;;17.98;14.48;;;6.40;73.60;;;;;;5064591;28;20210;-65
2021/03/07 11:00:10;;;;;;;17.50;12.38;;;6.40;73.00;;;;;;5064821;28;20261;-65
2021/03/07 11:02:36;;;;;;;14.60;11.10;;;6.40;74.00;;;;;;5061721;28;20434;-65
2021/03/07 11:05:04;;;;;;;15.52;11.10;;;7.20;73.10;;;;;;5070052;28;20203;-64
2021/03/07 11:07:31;;;;;;;11.48;10.02;;;6.60;74.00;;;;;;5070696;28;20231;-66
2021/03/07 11:09:58;;;;;;;12.60;9.30;;;6.60;72.20;;;;;;5067587;28;20199;-64
2021/03/07 11:12:25;;;;;;;16.35;8.93;;;6.70;70.50;;;;;;5063360;28;20203;-64
2021/03/07 11:14:51;;;;;;;10.68;8.57;;;6.70;69.60;;;;;;5081261;28;20206;-67
2021/03/07 11:17:18;;;;;;;11.95;9.05;;;6.50;70.30;;;;;;5083821;28;20283;-65
2021/03/07 11:19:45;;;;;;;15.10;10.30;;;6.40;71.20;;;;;;5090948;28;20245;-63
2021/03/07 11:22:11;;;;;;;11.18;8.80;;;6.50;71.40;;;;;;5078472;28;20219;-65
2021/03/07 11:24:38;;;;;;;11.75;9.35;;;6.70;71.30;;;;;;5077512;28;20210;-66
2021/03/07 11:27:05;;;;;;;10.38;9.23;;;6.90;71.00;;;;;;5078522;28;20206;-66
2021/03/07 11:29:31;;;;;;;14.10;9.07;;;6.70;70.50;;;;;;5077702;28;20404;-65
2021/03/07 11:31:58;;;;;;;11.05;8.68;;;6.80;70.80;;;;;;5083858;28;20217;-65
2021/03/07 11:34:25;;;;;;;11.85;9.52;;;6.80;70.80;;;;;;5077828;28;20218;-66
2021/03/07 11:36:52;;;;;;;14.70;12.10;;;6.80;70.70;;;;;;5077867;28;20268;-63
2021/03/07 11:39:18;;;;;;;10.93;9.10;;;6.70;70.30;;;;;;5078110;28;20202;-64
2021/03/07 11:41:45;;;;;;;14.05;9.82;;;6.70;71.30;;;;;;5082552;28;20530;-64
2021/03/07 11:44:11;;;;;;;13.30;9.55;;;6.70;70.80;;;;;;5084635;28;20207;-66
2021/03/07 11:46:38;;;;;;;14.52;8.68;;;6.50;72.10;;;;;;5086968;28;20220;-66
2021/03/07 11:49:05;;;;;;;11.98;8.50;;;6.30;72.90;;;;;;5079115;28;20254;-65
2021/03/07 11:51:32;;;;;;;10.60;8.23;;;6.40;73.20;;;;;;5080958;28;20219;-65
2021/03/07 11:53:58;;;;;;;12.15;8.63;;;6.60;72.80;;;;;;5080079;28;20203;-65
2021/03/07 11:56:25;;;;;;;15.65;8.98;;;6.80;72.00;;;;;;5077292;28;20210;-65
2021/03/07 11:58:55;;;;;;;22.27;9.70;;;6.80;71.10;;;;;;5084205;28;20217;-65
2021/03/07 12:01:22;;;;;;;11.18;8.50;;;6.80;70.70;;;;;;5078819;28;20214;-66
2021/03/07 12:03:49;;;;;;;14.40;10.23;;;6.70;70.10;;;;;;5076870;28;20234;-65
2021/03/07 12:06:15;;;;;;;14.23;10.10;;;6.80;69.70;;;;;;5079906;28;20412;-64
2021/03/07 12:08:42;;;;;;;19.63;9.65;;;7.00;68.70;;;;;;5079104;28;20219;-66
2021/03/07 12:11:08;;;;;;;14.63;8.52;;;7.20;67.90;;;;;;5077957;28;20337;-65
2021/03/07 12:13:35;;;;;;;11.38;7.95;;;7.10;68.00;;;;;;5077635;28;20207;-66
2021/03/07 12:16:01;;;;;;;8.65;7.07;;;7.10;68.90;;;;;;5078898;28;20195;-66
2021/03/07 12:18:28;;;;;;;12.65;7.55;;;7.00;68.80;;;;;;5076957;28;20210;-66
2021/03/07 12:20:55;;;;;;;16.65;10.05;;;6.90;69.00;;;;;;5077457;28;20265;-66
2021/03/07 12:23:22;;;;;;;23.45;11.25;;;6.90;69.30;;;;;;5077373;28;20210;-66
2021/03/07 12:25:48;;;;;;;11.70;10.45;;;7.00;69.50;;;;;;5080326;28;20244;-66
2021/03/07 12:28:15;;;;;;;9.60;8.60;;;7.00;69.00;;;;;;5079490;28;20233;-65
2021/03/07 12:30:42;;;;;;;10.20;7.78;;;6.90;68.90;;;;;;5076664;28;20213;-66
2021/03/07 12:33:08;;;;;;;9.35;7.72;;;6.90;69.50;;;;;;5079962;28;20202;-68
2021/03/07 12:35:35;;;;;;;9.75;8.23;;;6.80;69.00;;;;;;5078080;28;20233;-67
2021/03/07 12:38:03;;;;;;;9.00;7.35;;;6.70;69.40;;;;;;5077420;28;20211;-65
2021/03/07 12:40:30;;;;;;;13.88;7.28;;;6.70;69.60;;;;;;5077023;28;20207;-64
2021/03/07 12:42:57;;;;;;;8.00;6.05;;;6.70;70.40;;;;;;5075129;28;20209;-64
2021/03/07 12:45:23;;;;;;;8.65;7.72;;;6.90;70.40;;;;;;5067930;28;20213;-65
2021/03/07 12:47:50;;;;;;;9.00;8.10;;;7.10;69.60;;;;;;5074367;28;20227;-66
2021/03/07 12:50:26;;;;;;;10.15;6.97;;;7.10;68.90;;;;;;5061158;28;20260;-64
2021/03/07 12:52:52;;;;;;;11.07;7.32;;;7.20;68.00;;;;;;5070401;28;20229;-67
2021/03/07 12:55:19;;;;;;;13.63;8.40;;;7.20;69.20;;;;;;5066025;28;20249;-65
2021/03/07 12:57:46;;;;;;;10.00;7.65;;;7.10;68.70;;;;;;5071249;28;20218;-68
2021/03/07 13:00:13;;;;;;;8.35;7.03;;;7.10;69.60;;;;;;5065867;28;20207;-65
2021/03/07 13:02:39;;;;;;;11.27;7.13;;;6.90;68.70;;;;;;5070004;28;20226;-65
2021/03/07 13:05:07;;;;;;;9.55;8.23;;;6.70;69.60;;;;;;5079067;28;20211;-66